Time,TemperatureF,DewpointF,PressureIn,WindDirection,WindDirectionDegrees,WindSpeedMPH,WindSpeedGustMPH,Humidity,HourlyPrecipIn,Conditions,Clouds,dailyrainin,SoftwareType,DateUTC
2013-03-05 00:06:00,42.3,27.0,29.91,SW,232,0.0,-999.0,56,-99.99,,,0.00,weatherlink.com 1.10,2013-03-05 08:06:00,
2013-03-05 00:21:00,41.0,28.0,29.91,SW,232,0.0,-999.0,61,-99.99,,,0.00,weatherlink.com 1.10,2013-03-05 08:21:00,
2013-03-05 00:36:00,39.8,29.0,29.91,SW,232,0.0,-999.0,65,-99.99,,,0.00,weatherlink.com 1.10,2013-03-05 08:36:00,
2013-03-05 00:51:00,38.9,29.0,29.91,SW,232,0.0,-999.0,68,-99.99,,,0.00,weatherlink.com 1.10,2013-03-05 08:51:00,
2013-03-05 01:06:00,38.1,29.0,29.91,SW,232,0.0,-999.0,71,-99.99,,,0.00,weatherlink.com 1.10,2013-03-05 09:06:00,
2013-03-05 01:21:00,37.8,30.0,29.91,SW,232,0.0,-999.0,72,-99.99,,,0.00,weatherlink.com 1.10,2013-03-05 09:21:00,
2013-03-05 01:36:00,37.6,30.0,29.91,SW,232,0.0,-999.0,75,-99.99,,,0.00,weatherlink.com 1.10,2013-03-05 09:36:00,
2013-03-05 01:51:00,37.6,30.0,29.90,SW,232,0.0,-999.0,75,-99.99,,,0.00,weatherlink.com 1.10,2013-03-05 09:51:00,
2013-03-05 02:06:00,37.1,31.0,29.89,SW,232,0.0,-999.0,77,-99.99,,,0.00,weatherlink.com 1.10,2013-03-05 10:06:00,
2013-03-05 02:21:00,36.8,31.0,29.89,SW,232,0.0,-999.0,79,-99.99,,,0.00,weatherlink.com 1.10,2013-03-05 10:21:00,
2013-03-05 02:37:00,36.9,31.0,29.88,SW,232,0.0,-999.0,79,-99.99,,,0.00,weatherlink.com 1.10,2013-03-05 10:37:00,
2013-03-05 02:52:00,37.0,31.0,29.87,SW,232,0.0,-999.0,80,-99.99,,,0.00,weatherlink.com 1.10,2013-03-05 10:52:00,
2013-03-05 03:07:00,37.4,32.0,29.86,SW,232,0.0,-999.0,80,-99.99,,,0.00,weatherlink.com 1.10,2013-03-05 11:07:00,
2013-03-05 03:22:00,37.9,32.0,29.86,SW,232,0.0,-999.0,79,-99.99,,,0.00,weatherlink.com 1.10,2013-03-05 11:22:00,
2013-03-05 03:37:00,38.4,32.0,29.86,SW,232,0.0,-999.0,79,-99.99,,,0.00,weatherlink.com 1.10,2013-03-05 11:37:00,
2013-03-05 03:52:00,38.9,33.0,29.85,SW,232,0.0,-999.0,78,-99.99,,,0.00,weatherlink.com 1.10,2013-03-05 11:52:00,
2013-03-05 04:07:00,39.5,33.0,29.84,SW,232,0.0,-999.0,77,-99.99,,,0.00,weatherlink.com 1.10,2013-03-05 12:07:00,
2013-03-05 04:22:00,39.8,31.0,29.84,SW,233,0.0,-999.0,71,-99.99,,,0.00,weatherlink.com 1.10,2013-03-05 12:22:00,
2013-03-05 04:37:00,40.7,30.0,29.83,WNW,294,0.0,-999.0,67,-99.99,,,0.00,weatherlink.com 1.10,2013-03-05 12:37:00,
2013-03-05 04:52:00,41.4,30.0,29.82,WSW,240,0.0,-999.0,65,-99.99,,,0.00,weatherlink.com 1.10,2013-03-05 12:52:00,
2013-03-05 05:07:00,42.8,29.0,29.82,SSW,213,0.0,-999.0,58,-99.99,,,0.00,weatherlink.com 1.10,2013-03-05 13:07:00,
2013-03-05 05:22:00,43.5,29.0,29.81,WNW,293,0.0,-999.0,57,-99.99,,,0.00,weatherlink.com 1.10,2013-03-05 13:22:00,
2013-03-05 05:37:00,44.0,28.0,29.81,WSW,238,0.0,-999.0,53,-99.99,,,0.00,weatherlink.com 1.10,2013-03-05 13:37:00,
2013-03-05 05:52:00,44.2,28.0,29.81,SSW,205,0.0,-999.0,54,-99.99,,,0.00,weatherlink.com 1.10,2013-03-05 13:52:00,
2013-03-05 06:07:00,44.3,28.0,29.82,South,185,0.0,-999.0,53,-99.99,,,0.00,weatherlink.com 1.10,2013-03-05 14:07:00,
2013-03-05 06:22:00,44.2,29.0,29.82,WNW,287,0.0,-999.0,56,-99.99,,,0.00,weatherlink.com 1.10,2013-03-05 14:22:00,
2013-03-05 06:37:00,44.2,29.0,29.82,North,360,0.0,-999.0,55,-99.99,,,0.00,weatherlink.com 1.10,2013-03-05 14:37:00,
2013-03-05 06:52:00,44.0,29.0,29.81,North,360,0.0,-999.0,57,-99.99,,,0.00,weatherlink.com 1.10,2013-03-05 14:52:00,
2013-03-05 07:07:00,43.9,29.0,29.82,North,360,0.0,-999.0,56,-99.99,,,0.00,weatherlink.com 1.10,2013-03-05 15:07:00,
2013-03-05 07:22:00,43.8,30.0,29.83,North,355,0.0,-999.0,58,-99.99,,,0.00,weatherlink.com 1.10,2013-03-05 15:22:00,
2013-03-05 07:37:00,43.8,31.0,29.83,North,355,0.0,-999.0,61,-99.99,,,0.00,weatherlink.com 1.10,2013-03-05 15:37:00,
2013-03-05 07:52:00,43.6,32.0,29.83,North,351,0.0,-999.0,63,-99.99,,,0.00,weatherlink.com 1.10,2013-03-05 15:52:00,
2013-03-05 08:07:00,43.4,33.0,29.85,East,96,0.0,-999.0,66,-99.99,,,0.00,weatherlink.com 1.10,2013-03-05 16:07:00,
2013-03-05 08:22:00,43.5,33.0,29.85,SE,126,0.0,-999.0,67,-99.99,,,0.00,weatherlink.com 1.10,2013-03-05 16:22:00,
2013-03-05 08:37:00,43.5,36.0,29.86,SE,126,0.0,-999.0,76,-99.99,,,0.00,weatherlink.com 1.10,2013-03-05 16:37:00,
2013-03-05 08:52:00,43.1,38.0,29.86,SE,126,0.0,-999.0,83,-99.99,,,0.01,weatherlink.com 1.10,2013-03-05 16:52:00,
2013-03-05 09:22:00,41.9,39.0,29.87,SSE,161,0.0,-999.0,89,-99.99,,,0.05,weatherlink.com 1.10,2013-03-05 17:22:00,
2013-03-05 09:37:00,41.6,39.0,29.86,SSE,161,0.0,-999.0,91,-99.99,,,0.07,weatherlink.com 1.10,2013-03-05 17:37:00,
2013-03-05 09:52:00,41.6,39.0,29.86,SSE,161,0.0,-999.0,91,-99.99,,,0.09,weatherlink.com 1.10,2013-03-05 17:52:00,
2013-03-05 10:07:00,41.6,40.0,29.86,SSE,161,0.0,-999.0,92,-99.99,,,0.11,weatherlink.com 1.10,2013-03-05 18:07:00,
2013-03-05 10:22:00,41.6,40.0,29.85,SSE,163,0.0,-999.0,92,-99.99,,,0.11,weatherlink.com 1.10,2013-03-05 18:22:00,
2013-03-05 10:37:00,42.0,40.0,29.85,SSE,163,0.0,-999.0,93,-99.99,,,0.12,weatherlink.com 1.10,2013-03-05 18:37:00,
2013-03-05 10:52:00,42.3,40.0,29.85,WNW,302,0.0,-999.0,92,-99.99,,,0.12,weatherlink.com 1.10,2013-03-05 18:52:00,
2013-03-05 11:07:00,42.4,40.0,29.84,WNW,303,0.0,-999.0,91,-99.99,,,0.12,weatherlink.com 1.10,2013-03-05 19:07:00,
2013-03-05 11:22:00,42.4,40.0,29.84,North,360,0.0,-999.0,91,-99.99,,,0.13,weatherlink.com 1.10,2013-03-05 19:22:00,
2013-03-05 11:37:00,42.7,40.0,29.83,NNW,329,0.0,-999.0,91,-99.99,,,0.13,weatherlink.com 1.10,2013-03-05 19:37:00,
2013-03-05 11:52:00,43.1,40.0,29.83,NNW,331,1.0,-999.0,89,-99.99,,,0.13,weatherlink.com 1.10,2013-03-05 19:52:00,
2013-03-05 12:07:00,43.4,41.0,29.83,NNW,347,0.0,-999.0,91,-99.99,,,0.13,weatherlink.com 1.10,2013-03-05 20:07:00,
2013-03-05 12:22:00,43.9,41.0,29.83,South,174,0.0,-999.0,89,-99.99,,,0.13,weatherlink.com 1.10,2013-03-05 20:22:00,
2013-03-05 12:37:00,44.3,41.0,29.82,North,5,0.0,-999.0,88,-99.99,,,0.13,weatherlink.com 1.10,2013-03-05 20:37:00,
2013-03-05 12:52:00,45.3,42.0,29.81,North,11,0.0,-999.0,89,-99.99,,,0.13,weatherlink.com 1.10,2013-03-05 20:52:00,
2013-03-05 13:07:00,47.0,43.0,29.81,SSE,159,1.0,-999.0,85,-99.99,,,0.13,weatherlink.com 1.10,2013-03-05 21:07:00,
2013-03-05 13:22:00,47.3,43.0,29.80,WSW,240,0.0,-999.0,85,-99.99,,,0.13,weatherlink.com 1.10,2013-03-05 21:22:00,
2013-03-05 13:37:00,47.6,43.0,29.80,North,360,1.0,-999.0,83,-99.99,,,0.13,weatherlink.com 1.10,2013-03-05 21:37:00,
2013-03-05 13:52:00,47.3,42.0,29.79,North,350,0.0,-999.0,81,-99.99,,,0.13,weatherlink.com 1.10,2013-03-05 21:52:00,
2013-03-05 14:07:00,46.5,41.0,29.79,NNW,340,4.0,-999.0,80,-99.99,,,0.13,weatherlink.com 1.10,2013-03-05 22:07:00,
2013-03-05 14:22:00,46.6,41.0,29.79,NNW,344,1.0,-999.0,80,-99.99,,,0.13,weatherlink.com 1.10,2013-03-05 22:22:00,
2013-03-05 14:37:00,46.4,40.0,29.79,North,349,2.0,-999.0,77,-99.99,,,0.13,weatherlink.com 1.10,2013-03-05 22:37:00,
2013-03-05 14:53:00,45.9,40.0,29.78,North,355,0.0,-999.0,79,-99.99,,,0.13,weatherlink.com 1.10,2013-03-05 22:53:00,
2013-03-05 15:08:00,46.0,40.0,29.78,North,355,0.0,-999.0,79,-99.99,,,0.13,weatherlink.com 1.10,2013-03-05 23:08:00,
2013-03-05 15:23:00,46.0,40.0,29.78,NNW,342,0.0,-999.0,79,-99.99,,,0.13,weatherlink.com 1.10,2013-03-05 23:23:00,
2013-03-05 15:38:00,46.1,40.0,29.78,NNW,343,1.0,-999.0,79,-99.99,,,0.13,weatherlink.com 1.10,2013-03-05 23:38:00,
2013-03-05 15:53:00,46.3,40.0,29.77,NNW,343,0.0,-999.0,80,-99.99,,,0.13,weatherlink.com 1.10,2013-03-05 23:53:00,
2013-03-05 16:08:00,46.3,40.0,29.77,NNW,343,0.0,-999.0,80,-99.99,,,0.13,weatherlink.com 1.10,2013-03-06 00:08:00,
2013-03-05 16:23:00,45.9,41.0,29.77,NNW,343,0.0,-999.0,82,-99.99,,,0.13,weatherlink.com 1.10,2013-03-06 00:23:00,
2013-03-05 16:38:00,45.4,42.0,29.77,ESE,117,0.0,-999.0,87,-99.99,,,0.15,weatherlink.com 1.10,2013-03-06 00:38:00,
2013-03-05 16:53:00,44.8,42.0,29.76,NNW,343,0.0,-999.0,88,-99.99,,,0.15,weatherlink.com 1.10,2013-03-06 00:53:00,
2013-03-05 17:08:00,44.2,42.0,29.76,North,360,0.0,-999.0,90,-99.99,,,0.15,weatherlink.com 1.10,2013-03-06 01:08:00,
2013-03-05 17:23:00,43.8,41.0,29.76,North,360,0.0,-999.0,91,-99.99,,,0.16,weatherlink.com 1.10,2013-03-06 01:23:00,
2013-03-05 17:38:00,43.4,41.0,29.77,WSW,250,0.0,-999.0,91,-99.99,,,0.16,weatherlink.com 1.10,2013-03-06 01:38:00,
2013-03-05 17:53:00,43.3,41.0,29.77,WNW,284,0.0,-999.0,92,-99.99,,,0.16,weatherlink.com 1.10,2013-03-06 01:53:00,
2013-03-05 18:08:00,43.0,41.0,29.77,North,5,0.0,-999.0,92,-99.99,,,0.17,weatherlink.com 1.10,2013-03-06 02:08:00,
2013-03-05 18:23:00,42.7,40.0,29.77,North,355,0.0,-999.0,91,-99.99,,,0.17,weatherlink.com 1.10,2013-03-06 02:23:00,
2013-03-05 18:38:00,42.3,40.0,29.76,North,350,0.0,-999.0,92,-99.99,,,0.17,weatherlink.com 1.10,2013-03-06 02:38:00,
2013-03-05 18:53:00,41.9,40.0,29.76,NNW,344,0.0,-999.0,93,-99.99,,,0.18,weatherlink.com 1.10,2013-03-06 02:53:00,
2013-03-05 19:08:00,41.8,40.0,29.76,NW,323,0.0,-999.0,94,-99.99,,,0.19,weatherlink.com 1.10,2013-03-06 03:08:00,
2013-03-05 19:23:00,41.7,40.0,29.76,NNE,19,0.0,-999.0,94,-99.99,,,0.21,weatherlink.com 1.10,2013-03-06 03:23:00,
2013-03-05 19:38:00,41.6,40.0,29.75,NNE,25,0.0,-999.0,94,-99.99,,,0.22,weatherlink.com 1.10,2013-03-06 03:38:00,
2013-03-05 19:53:00,41.5,40.0,29.75,North,9,0.0,-999.0,94,-99.99,,,0.23,weatherlink.com 1.10,2013-03-06 03:53:00,
2013-03-05 20:08:00,41.4,40.0,29.74,NNW,336,0.0,-999.0,94,-99.99,,,0.23,weatherlink.com 1.10,2013-03-06 04:08:00,
2013-03-05 20:23:00,41.4,40.0,29.75,NNW,339,0.0,-999.0,94,-99.99,,,0.24,weatherlink.com 1.10,2013-03-06 04:23:00,
2013-03-05 20:38:00,41.5,40.0,29.75,WNW,286,0.0,-999.0,94,-99.99,,,0.24,weatherlink.com 1.10,2013-03-06 04:38:00,
2013-03-05 20:53:00,41.5,40.0,29.73,NW,325,3.0,-999.0,94,-99.99,,,0.25,weatherlink.com 1.10,2013-03-06 04:53:00,
2013-03-05 21:08:00,41.5,40.0,29.73,North,350,0.0,-999.0,94,-99.99,,,0.25,weatherlink.com 1.10,2013-03-06 05:08:00,
2013-03-05 21:23:00,41.4,40.0,29.72,NW,326,1.0,-999.0,94,-99.99,,,0.25,weatherlink.com 1.10,2013-03-06 05:23:00,
2013-03-05 21:38:00,41.3,40.0,29.72,NNW,336,0.0,-999.0,93,-99.99,,,0.25,weatherlink.com 1.10,2013-03-06 05:38:00,
2013-03-05 21:53:00,41.3,40.0,29.71,NNW,343,0.0,-999.0,93,-99.99,,,0.26,weatherlink.com 1.10,2013-03-06 05:53:00,
2013-03-05 22:08:00,41.4,40.0,29.70,NNW,336,0.0,-999.0,93,-99.99,,,0.26,weatherlink.com 1.10,2013-03-06 06:08:00,
2013-03-05 22:23:00,41.4,39.0,29.69,North,355,0.0,-999.0,92,-99.99,,,0.26,weatherlink.com 1.10,2013-03-06 06:23:00,
2013-03-05 22:38:00,41.5,39.0,29.68,WNW,294,0.0,-999.0,91,-99.99,,,0.26,weatherlink.com 1.10,2013-03-06 06:38:00,
2013-03-05 22:53:00,41.7,39.0,29.67,WNW,285,0.0,-999.0,91,-99.99,,,0.26,weatherlink.com 1.10,2013-03-06 06:53:00,
2013-03-05 23:08:00,41.7,39.0,29.66,NE,39,1.0,-999.0,90,-99.99,,,0.26,weatherlink.com 1.10,2013-03-06 07:08:00,
2013-03-05 23:23:00,42.0,39.0,29.66,NNW,336,0.0,-999.0,89,-99.99,,,0.26,weatherlink.com 1.10,2013-03-06 07:23:00,
2013-03-05 23:38:00,42.0,39.0,29.66,North,355,0.0,-999.0,88,-99.99,,,0.26,weatherlink.com 1.10,2013-03-06 07:38:00,
2013-03-05 23:53:00,41.7,39.0,29.65,North,355,0.0,-999.0,89,-99.99,,,0.26,weatherlink.com 1.10,2013-03-06 07:53:00,